sensor_id;sensor_type;location;lat;lon;timestamp;temperature;humidity
74792;SHT30;63319;46.046;17.802;2023-04-01T00:01:06;23.31;41.14
74792;SHT30;63319;46.046;17.802;2023-04-01T00:04:09;23.34;41.01
74792;SHT30;63319;46.046;17.802;2023-04-01T00:07:12;23.29;41.02
74792;SHT30;63319;46.046;17.802;2023-04-01T00:10:15;23.28;41.15
74792;SHT30;63319;46.046;17.802;2023-04-01T00:13:18;23.28;41.22
74792;SHT30;63319;46.046;17.802;2023-04-01T00:16:22;23.28;41.02
74792;SHT30;63319;46.046;17.802;2023-04-01T00:19:25;23.27;41.17
74792;SHT30;63319;46.046;17.802;2023-04-01T00:22:29;23.25;41.25
74792;SHT30;63319;46.046;17.802;2023-04-01T00:25:31;23.24;41.14
74792;SHT30;63319;46.046;17.802;2023-04-01T00:28:34;23.24;41.18
74792;SHT30;63319;46.046;17.802;2023-04-01T00:31:38;23.21;41.28
74792;SHT30;63319;46.046;17.802;2023-04-01T00:34:42;23.21;41.33
74792;SHT30;63319;46.046;17.802;2023-04-01T00:37:44;23.19;40.89
74792;SHT30;63319;46.046;17.802;2023-04-01T00:40:47;23.19;41.30
74792;SHT30;63319;46.046;17.802;2023-04-01T00:43:51;23.19;41.41
74792;SHT30;63319;46.046;17.802;2023-04-01T00:46:54;23.21;41.36
74792;SHT30;63319;46.046;17.802;2023-04-01T00:49:57;23.19;41.34
74792;SHT30;63319;46.046;17.802;2023-04-01T00:53:01;23.17;41.30
74792;SHT30;63319;46.046;17.802;2023-04-01T00:56:09;23.18;41.29
74792;SHT30;63319;46.046;17.802;2023-04-01T00:59:17;23.18;41.29
74792;SHT30;63319;46.046;17.802;2023-04-01T01:02:22;23.15;41.40
74792;SHT30;63319;46.046;17.802;2023-04-01T01:05:47;23.18;41.48
74792;SHT30;63319;46.046;17.802;2023-04-01T01:09:12;23.17;41.41
74792;SHT30;63319;46.046;17.802;2023-04-01T01:15:46;23.14;41.40
74792;SHT30;63319;46.046;17.802;2023-04-01T01:38:48;23.08;41.37
74792;SHT30;63319;46.046;17.802;2023-04-01T01:41:53;23.08;41.59
74792;SHT30;63319;46.046;17.802;2023-04-01T01:44:58;23.10;41.46
74792;SHT30;63319;46.046;17.802;2023-04-01T01:48:04;23.10;41.41
74792;SHT30;63319;46.046;17.802;2023-04-01T01:51:11;23.08;41.58
74792;SHT30;63319;46.046;17.802;2023-04-01T01:54:17;23.08;41.61
74792;SHT30;63319;46.046;17.802;2023-04-01T01:57:23;23.06;41.53
74792;SHT30;63319;46.046;17.802;2023-04-01T02:00:29;23.07;41.40
74792;SHT30;63319;46.046;17.802;2023-04-01T02:03:36;23.07;41.47
74792;SHT30;63319;46.046;17.802;2023-04-01T02:06:44;23.10;41.42
74792;SHT30;63319;46.046;17.802;2023-04-01T02:09:49;23.06;41.37
74792;SHT30;63319;46.046;17.802;2023-04-01T02:12:57;23.07;41.46
74792;SHT30;63319;46.046;17.802;2023-04-01T02:16:06;23.03;41.49
74792;SHT30;63319;46.046;17.802;2023-04-01T02:19:12;23.03;41.40
74792;SHT30;63319;46.046;17.802;2023-04-01T02:22:26;23.04;41.50
74792;SHT30;63319;46.046;17.802;2023-04-01T02:25:34;23.06;41.46
74792;SHT30;63319;46.046;17.802;2023-04-01T02:28:38;23.06;41.53
74792;SHT30;63319;46.046;17.802;2023-04-01T02:31:42;23.04;41.51
74792;SHT30;63319;46.046;17.802;2023-04-01T02:34:46;23.04;41.57
74792;SHT30;63319;46.046;17.802;2023-04-01T02:37:52;23.04;41.54
74792;SHT30;63319;46.046;17.802;2023-04-01T02:41:00;23.03;41.66
74792;SHT30;63319;46.046;17.802;2023-04-01T02:44:03;23.04;41.62
74792;SHT30;63319;46.046;17.802;2023-04-01T02:47:06;23.03;41.54
74792;SHT30;63319;46.046;17.802;2023-04-01T02:50:09;23.04;41.42
74792;SHT30;63319;46.046;17.802;2023-04-01T02:53:12;23.03;41.65
74792;SHT30;63319;46.046;17.802;2023-04-01T02:56:15;23.03;41.63
74792;SHT30;63319;46.046;17.802;2023-04-01T02:59:18;23.01;41.55
74792;SHT30;63319;46.046;17.802;2023-04-01T03:02:21;23.03;41.61
74792;SHT30;63319;46.046;17.802;2023-04-01T03:05:24;23.03;41.69
74792;SHT30;63319;46.046;17.802;2023-04-01T03:08:26;23.01;41.58
74792;SHT30;63319;46.046;17.802;2023-04-01T03:11:29;23.00;41.52
74792;SHT30;63319;46.046;17.802;2023-04-01T03:14:32;23.01;41.60
74792;SHT30;63319;46.046;17.802;2023-04-01T03:17:35;23.03;41.52
74792;SHT30;63319;46.046;17.802;2023-04-01T03:20:41;23.04;41.58
74792;SHT30;63319;46.046;17.802;2023-04-01T03:23:45;23.01;41.58
74792;SHT30;63319;46.046;17.802;2023-04-01T03:26:48;23.01;41.58
74792;SHT30;63319;46.046;17.802;2023-04-01T03:29:51;23.06;41.54
74792;SHT30;63319;46.046;17.802;2023-04-01T03:32:54;23.01;41.62
74792;SHT30;63319;46.046;17.802;2023-04-01T03:35:57;23.03;41.64
74792;SHT30;63319;46.046;17.802;2023-04-01T03:39:00;23.03;41.64
74792;SHT30;63319;46.046;17.802;2023-04-01T03:42:12;23.03;41.57
74792;SHT30;63319;46.046;17.802;2023-04-01T03:45:14;23.04;41.50
74792;SHT30;63319;46.046;17.802;2023-04-01T03:48:18;23.03;41.61
74792;SHT30;63319;46.046;17.802;2023-04-01T03:51:20;23.01;41.54
74792;SHT30;63319;46.046;17.802;2023-04-01T03:54:23;23.00;41.58
74792;SHT30;63319;46.046;17.802;2023-04-01T03:57:27;23.01;41.51
74792;SHT30;63319;46.046;17.802;2023-04-01T04:00:34;23.01;41.60
74792;SHT30;63319;46.046;17.802;2023-04-01T04:03:37;23.00;41.58
74792;SHT30;63319;46.046;17.802;2023-04-01T04:06:41;23.00;41.61
74792;SHT30;63319;46.046;17.802;2023-04-01T04:09:44;23.00;41.48
74792;SHT30;63319;46.046;17.802;2023-04-01T04:12:49;23.00;41.55
74792;SHT30;63319;46.046;17.802;2023-04-01T04:15:52;22.98;41.54
74792;SHT30;63319;46.046;17.802;2023-04-01T04:18:55;22.97;41.62
74792;SHT30;63319;46.046;17.802;2023-04-01T04:21:58;22.97;41.55
74792;SHT30;63319;46.046;17.802;2023-04-01T04:25:04;22.96;41.52
74792;SHT30;63319;46.046;17.802;2023-04-01T04:28:07;22.98;41.56
74792;SHT30;63319;46.046;17.802;2023-04-01T04:31:10;22.98;41.58
74792;SHT30;63319;46.046;17.802;2023-04-01T04:34:16;22.94;41.62
74792;SHT30;63319;46.046;17.802;2023-04-01T04:37:20;22.96;41.55
74792;SHT30;63319;46.046;17.802;2023-04-01T04:40:25;22.96;41.35
74792;SHT30;63319;46.046;17.802;2023-04-01T04:43:28;22.97;41.58
74792;SHT30;63319;46.046;17.802;2023-04-01T04:46:32;22.94;41.53
74792;SHT30;63319;46.046;17.802;2023-04-01T04:49:46;22.96;41.44
74792;SHT30;63319;46.046;17.802;2023-04-01T04:52:51;22.93;41.40
74792;SHT30;63319;46.046;17.802;2023-04-01T04:55:54;22.94;41.66
74792;SHT30;63319;46.046;17.802;2023-04-01T04:59:23;22.94;41.65
74792;SHT30;63319;46.046;17.802;2023-04-01T05:02:52;22.93;41.63
74792;SHT30;63319;46.046;17.802;2023-04-01T05:05:55;22.94;41.63
74792;SHT30;63319;46.046;17.802;2023-04-01T05:08:57;22.96;41.72
74792;SHT30;63319;46.046;17.802;2023-04-01T05:12:01;22.94;41.46
74792;SHT30;63319;46.046;17.802;2023-04-01T05:15:16;22.96;41.70
74792;SHT30;63319;46.046;17.802;2023-04-01T05:18:19;22.93;41.63
74792;SHT30;63319;46.046;17.802;2023-04-01T05:21:22;22.94;41.62
74792;SHT30;63319;46.046;17.802;2023-04-01T05:24:26;22.94;41.73
74792;SHT30;63319;46.046;17.802;2023-04-01T05:27:28;22.94;41.70
74792;SHT30;63319;46.046;17.802;2023-04-01T05:30:31;22.96;41.60
74792;SHT30;63319;46.046;17.802;2023-04-01T05:33:37;22.94;41.63
74792;SHT30;63319;46.046;17.802;2023-04-01T05:36:40;22.94;41.69
74792;SHT30;63319;46.046;17.802;2023-04-01T05:39:44;22.98;41.76
74792;SHT30;63319;46.046;17.802;2023-04-01T05:42:47;22.96;41.61
74792;SHT30;63319;46.046;17.802;2023-04-01T05:45:51;22.96;41.58
74792;SHT30;63319;46.046;17.802;2023-04-01T05:49:10;22.96;41.70
74792;SHT30;63319;46.046;17.802;2023-04-01T05:52:13;22.98;41.70
74792;SHT30;63319;46.046;17.802;2023-04-01T05:55:16;22.96;41.58
74792;SHT30;63319;46.046;17.802;2023-04-01T05:58:19;22.97;41.48
74792;SHT30;63319;46.046;17.802;2023-04-01T06:01:24;22.96;41.52
74792;SHT30;63319;46.046;17.802;2023-04-01T06:04:28;23.01;41.52
74792;SHT30;63319;46.046;17.802;2023-04-01T06:07:34;22.98;41.44
74792;SHT30;63319;46.046;17.802;2023-04-01T06:24:40;23.00;41.45
74792;SHT30;63319;46.046;17.802;2023-04-01T06:52:41;23.12;41.23
74792;SHT30;63319;46.046;17.802;2023-04-01T06:56:08;23.14;41.02
74792;SHT30;63319;46.046;17.802;2023-04-01T06:59:32;23.17;41.00
74792;SHT30;63319;46.046;17.802;2023-04-01T07:02:41;23.21;41.31
74792;SHT30;63319;46.046;17.802;2023-04-01T07:05:45;23.24;41.32
74792;SHT30;63319;46.046;17.802;2023-04-01T07:08:50;23.24;40.92
74792;SHT30;63319;46.046;17.802;2023-04-01T07:12:01;23.25;40.99
74792;SHT30;63319;46.046;17.802;2023-04-01T07:15:33;23.27;40.80
74792;SHT30;63319;46.046;17.802;2023-04-01T07:18:49;23.24;41.03
74792;SHT30;63319;46.046;17.802;2023-04-01T07:22:13;23.25;40.90
74792;SHT30;63319;46.046;17.802;2023-04-01T07:25:44;23.24;41.03
74792;SHT30;63319;46.046;17.802;2023-04-01T07:29:12;23.22;40.97
74792;SHT30;63319;46.046;17.802;2023-04-01T07:32:42;23.21;40.99
74792;SHT30;63319;46.046;17.802;2023-04-01T07:39:33;23.24;40.83
74792;SHT30;63319;46.046;17.802;2023-04-01T07:50:28;23.21;40.89
74792;SHT30;63319;46.046;17.802;2023-04-01T07:54:15;23.24;41.01
74792;SHT30;63319;46.046;17.802;2023-04-01T07:57:33;23.24;40.82
74792;SHT30;63319;46.046;17.802;2023-04-01T08:01:02;23.25;41.01
74792;SHT30;63319;46.046;17.802;2023-04-01T08:15:04;23.32;40.58
74792;SHT30;63319;46.046;17.802;2023-04-01T08:19:03;23.32;40.95
74792;SHT30;63319;46.046;17.802;2023-04-01T08:22:09;23.34;40.65
74792;SHT30;63319;46.046;17.802;2023-04-01T08:25:22;23.34;40.58
74792;SHT30;63319;46.046;17.802;2023-04-01T08:28:34;23.37;40.61
74792;SHT30;63319;46.046;17.802;2023-04-01T08:32:03;23.42;40.69
74792;SHT30;63319;46.046;17.802;2023-04-01T08:35:18;23.44;40.46
74792;SHT30;63319;46.046;17.802;2023-04-01T08:38:36;23.45;40.35
74792;SHT30;63319;46.046;17.802;2023-04-01T08:52:09;23.52;40.34
74792;SHT30;63319;46.046;17.802;2023-04-01T08:59:25;23.61;40.61
74792;SHT30;63319;46.046;17.802;2023-04-01T09:57:27;23.93;39.48
74792;SHT30;63319;46.046;17.802;2023-04-01T10:01:09;23.92;39.61
74792;SHT30;63319;46.046;17.802;2023-04-01T10:31:50;23.97;39.68
74792;SHT30;63319;46.046;17.802;2023-04-01T11:01:36;24.06;39.45
74792;SHT30;63319;46.046;17.802;2023-04-01T11:26:00;25.15;37.58
74792;SHT30;63319;46.046;17.802;2023-04-01T11:30:04;25.41;37.28
74792;SHT30;63319;46.046;17.802;2023-04-01T11:59:04;26.09;36.45
74792;SHT30;63319;46.046;17.802;2023-04-01T12:10:02;25.95;36.73
74792;SHT30;63319;46.046;17.802;2023-04-01T12:13:27;26.05;36.59
74792;SHT30;63319;46.046;17.802;2023-04-01T12:17:07;26.14;36.39
74792;SHT30;63319;46.046;17.802;2023-04-01T12:51:46;25.92;36.88
74792;SHT30;63319;46.046;17.802;2023-04-01T13:02:01;25.68;37.12
74792;SHT30;63319;46.046;17.802;2023-04-01T13:09:21;25.73;37.11
74792;SHT30;63319;46.046;17.802;2023-04-01T13:15:54;25.73;37.06
74792;SHT30;63319;46.046;17.802;2023-04-01T13:19:06;25.78;36.97
74792;SHT30;63319;46.046;17.802;2023-04-01T13:28:50;25.67;37.11
74792;SHT30;63319;46.046;17.802;2023-04-01T13:32:27;25.63;37.17
74792;SHT30;63319;46.046;17.802;2023-04-01T13:39:35;25.56;37.28
74792;SHT30;63319;46.046;17.802;2023-04-01T13:42:49;25.51;37.41
74792;SHT30;63319;46.046;17.802;2023-04-01T13:46:06;25.44;37.39
74792;SHT30;63319;46.046;17.802;2023-04-01T14:05:52;25.02;38.13
74792;SHT30;63319;46.046;17.802;2023-04-01T14:26:29;24.76;38.75
74792;SHT30;63319;46.046;17.802;2023-04-01T14:49:46;24.34;39.26
74792;SHT30;63319;46.046;17.802;2023-04-01T14:56:49;24.23;39.28
74792;SHT30;63319;46.046;17.802;2023-04-01T15:00:13;24.18;39.45
74792;SHT30;63319;46.046;17.802;2023-04-01T15:03:26;24.17;39.28
74792;SHT30;63319;46.046;17.802;2023-04-01T15:13:42;24.07;39.52
74792;SHT30;63319;46.046;17.802;2023-04-01T15:23:40;24.09;39.43
74792;SHT30;63319;46.046;17.802;2023-04-01T15:30:05;24.09;39.58
74792;SHT30;63319;46.046;17.802;2023-04-01T15:33:24;24.10;39.69
74792;SHT30;63319;46.046;17.802;2023-04-01T15:40:15;24.04;39.81
74792;SHT30;63319;46.046;17.802;2023-04-01T15:43:47;24.03;39.76
74792;SHT30;63319;46.046;17.802;2023-04-01T15:46:54;23.99;39.80
74792;SHT30;63319;46.046;17.802;2023-04-01T15:59:56;23.92;40.08
74792;SHT30;63319;46.046;17.802;2023-04-01T16:10:55;23.85;40.09
74792;SHT30;63319;46.046;17.802;2023-04-01T16:14:18;23.80;40.29
74792;SHT30;63319;46.046;17.802;2023-04-01T16:20:59;23.76;40.31
74792;SHT30;63319;46.046;17.802;2023-04-01T16:30:38;23.70;40.59
74792;SHT30;63319;46.046;17.802;2023-04-01T16:33:58;23.67;40.59
74792;SHT30;63319;46.046;17.802;2023-04-01T16:37:10;23.66;40.53
74792;SHT30;63319;46.046;17.802;2023-04-01T16:43:55;23.59;40.67
74792;SHT30;63319;46.046;17.802;2023-04-01T16:47:09;23.56;40.69
74792;SHT30;63319;46.046;17.802;2023-04-01T16:57:46;23.52;40.80
74792;SHT30;63319;46.046;17.802;2023-04-01T17:01:06;23.48;40.86
74792;SHT30;63319;46.046;17.802;2023-04-01T17:04:30;23.45;40.94
74792;SHT30;63319;46.046;17.802;2023-04-01T17:11:27;23.42;41.04
74792;SHT30;63319;46.046;17.802;2023-04-01T17:14:46;23.42;41.15
74792;SHT30;63319;46.046;17.802;2023-04-01T17:18:05;23.39;41.06
74792;SHT30;63319;46.046;17.802;2023-04-01T17:42:11;23.25;41.33
74792;SHT30;63319;46.046;17.802;2023-04-01T18:02:21;23.15;41.56
74792;SHT30;63319;46.046;17.802;2023-04-01T18:09:00;23.14;41.64
74792;SHT30;63319;46.046;17.802;2023-04-01T18:23:03;23.08;41.78
74792;SHT30;63319;46.046;17.802;2023-04-01T18:26:31;23.07;41.63
74792;SHT30;63319;46.046;17.802;2023-04-01T18:29:41;23.08;41.73
74792;SHT30;63319;46.046;17.802;2023-04-01T18:33:04;23.06;41.73
74792;SHT30;63319;46.046;17.802;2023-04-01T18:36:50;23.04;41.81
74792;SHT30;63319;46.046;17.802;2023-04-01T18:50:36;23.01;41.81
74792;SHT30;63319;46.046;17.802;2023-04-01T18:53:57;23.00;41.78
74792;SHT30;63319;46.046;17.802;2023-04-01T18:57:19;23.01;41.91
74792;SHT30;63319;46.046;17.802;2023-04-01T19:00:35;22.97;41.89
74792;SHT30;63319;46.046;17.802;2023-04-01T19:04:08;22.96;41.78
74792;SHT30;63319;46.046;17.802;2023-04-01T19:11:21;22.94;41.86
74792;SHT30;63319;46.046;17.802;2023-04-01T19:14:33;22.94;41.79
74792;SHT30;63319;46.046;17.802;2023-04-01T19:21:43;22.89;41.94
74792;SHT30;63319;46.046;17.802;2023-04-01T19:28:22;22.87;41.97
74792;SHT30;63319;46.046;17.802;2023-04-01T19:38:38;22.86;42.00
74792;SHT30;63319;46.046;17.802;2023-04-01T19:51:57;22.86;42.04
74792;SHT30;63319;46.046;17.802;2023-04-01T19:58:36;22.81;42.11
74792;SHT30;63319;46.046;17.802;2023-04-01T20:18:56;22.79;42.01
74792;SHT30;63319;46.046;17.802;2023-04-01T20:22:05;22.76;42.03
74792;SHT30;63319;46.046;17.802;2023-04-01T20:28:25;22.73;42.04
74792;SHT30;63319;46.046;17.802;2023-04-01T20:31:40;22.73;42.01
74792;SHT30;63319;46.046;17.802;2023-04-01T20:44:52;22.70;42.08
74792;SHT30;63319;46.046;17.802;2023-04-01T20:48:10;22.73;42.02
74792;SHT30;63319;46.046;17.802;2023-04-01T20:51:30;22.70;42.12
74792;SHT30;63319;46.046;17.802;2023-04-01T20:58:24;22.67;42.09
74792;SHT30;63319;46.046;17.802;2023-04-01T21:11:53;22.66;42.03
74792;SHT30;63319;46.046;17.802;2023-04-01T21:18:38;22.69;42.18
74792;SHT30;63319;46.046;17.802;2023-04-01T21:43:17;22.64;42.22
74792;SHT30;63319;46.046;17.802;2023-04-01T21:47:02;22.63;42.14
74792;SHT30;63319;46.046;17.802;2023-04-01T22:07:21;22.62;42.03
74792;SHT30;63319;46.046;17.802;2023-04-01T22:13:35;22.63;41.98
74792;SHT30;63319;46.046;17.802;2023-04-01T22:16:48;22.62;41.84
74792;SHT30;63319;46.046;17.802;2023-04-01T22:20:01;22.63;42.01
74792;SHT30;63319;46.046;17.802;2023-04-01T22:23:12;22.62;42.08
74792;SHT30;63319;46.046;17.802;2023-04-01T22:40:25;22.62;41.96
74792;SHT30;63319;46.046;17.802;2023-04-01T22:43:39;22.60;41.99
74792;SHT30;63319;46.046;17.802;2023-04-01T22:57:14;22.63;41.96
74792;SHT30;63319;46.046;17.802;2023-04-01T23:03:32;22.60;42.01
74792;SHT30;63319;46.046;17.802;2023-04-01T23:06:40;22.62;41.88
74792;SHT30;63319;46.046;17.802;2023-04-01T23:09:45;22.60;41.96
74792;SHT30;63319;46.046;17.802;2023-04-01T23:12:50;22.60;42.03
74792;SHT30;63319;46.046;17.802;2023-04-01T23:15:54;22.59;42.05
74792;SHT30;63319;46.046;17.802;2023-04-01T23:19:29;22.59;42.08
74792;SHT30;63319;46.046;17.802;2023-04-01T23:22:49;22.59;42.04
74792;SHT30;63319;46.046;17.802;2023-04-01T23:26:05;22.59;42.05
74792;SHT30;63319;46.046;17.802;2023-04-01T23:29:15;22.57;42.08
74792;SHT30;63319;46.046;17.802;2023-04-01T23:32:22;22.57;42.08
74792;SHT30;63319;46.046;17.802;2023-04-01T23:35:28;22.57;42.15
74792;SHT30;63319;46.046;17.802;2023-04-01T23:38:34;22.59;42.18
74792;SHT30;63319;46.046;17.802;2023-04-01T23:41:37;22.57;42.02
74792;SHT30;63319;46.046;17.802;2023-04-01T23:44:42;22.59;42.07
74792;SHT30;63319;46.046;17.802;2023-04-01T23:47:46;22.59;42.07
74792;SHT30;63319;46.046;17.802;2023-04-01T23:50:52;22.57;42.04
74792;SHT30;63319;46.046;17.802;2023-04-01T23:54:18;22.59;42.12
74792;SHT30;63319;46.046;17.802;2023-04-01T23:57:26;22.56;42.05
